sensor_id;sensor_type;location;lat;lon;timestamp;P1;durP1;ratioP1;P2;durP2;ratioP2
70780;SDS011;59514;48.810;2.134;2022-11-13T00:01:33;20.13;;;18.05;;
70780;SDS011;59514;48.810;2.134;2022-11-13T00:03:51;22.00;;;19.57;;
70780;SDS011;59514;48.810;2.134;2022-11-13T00:06:17;19.92;;;17.65;;
70780;SDS011;59514;48.810;2.134;2022-11-13T00:08:43;20.85;;;18.58;;
70780;SDS011;59514;48.810;2.134;2022-11-13T00:11:13;19.90;;;17.23;;
70780;SDS011;59514;48.810;2.134;2022-11-13T00:13:42;20.42;;;18.27;;
70780;SDS011;59514;48.810;2.134;2022-11-13T00:16:10;18.70;;;16.83;;
70780;SDS011;59514;48.810;2.134;2022-11-13T00:18:41;19.23;;;17.13;;
70780;SDS011;59514;48.810;2.134;2022-11-13T00:21:07;19.73;;;17.63;;
70780;SDS011;59514;48.810;2.134;2022-11-13T00:23:36;19.25;;;17.25;;
70780;SDS011;59514;48.810;2.134;2022-11-13T00:26:03;19.50;;;17.50;;
70780;SDS011;59514;48.810;2.134;2022-11-13T00:28:32;19.98;;;17.80;;
70780;SDS011;59514;48.810;2.134;2022-11-13T00:30:58;21.20;;;19.10;;
70780;SDS011;59514;48.810;2.134;2022-11-13T00:33:25;21.02;;;19.02;;
70780;SDS011;59514;48.810;2.134;2022-11-13T00:35:51;20.25;;;18.15;;
70780;SDS011;59514;48.810;2.134;2022-11-13T00:38:16;18.73;;;16.63;;
70780;SDS011;59514;48.810;2.134;2022-11-13T00:40:41;20.35;;;18.25;;
70780;SDS011;59514;48.810;2.134;2022-11-13T00:43:07;20.20;;;18.15;;
70780;SDS011;59514;48.810;2.134;2022-11-13T00:45:32;20.80;;;18.67;;
70780;SDS011;59514;48.810;2.134;2022-11-13T00:47:57;19.63;;;17.65;;
70780;SDS011;59514;48.810;2.134;2022-11-13T00:50:23;20.42;;;17.95;;
70780;SDS011;59514;48.810;2.134;2022-11-13T00:52:48;20.30;;;18.20;;
70780;SDS011;59514;48.810;2.134;2022-11-13T00:55:13;20.10;;;18.13;;
70780;SDS011;59514;48.810;2.134;2022-11-13T00:57:39;19.80;;;17.70;;
70780;SDS011;59514;48.810;2.134;2022-11-13T01:00:04;19.80;;;17.70;;
70780;SDS011;59514;48.810;2.134;2022-11-13T01:02:30;20.13;;;17.33;;
70780;SDS011;59514;48.810;2.134;2022-11-13T01:04:55;20.05;;;17.05;;
70780;SDS011;59514;48.810;2.134;2022-11-13T01:07:20;19.70;;;17.70;;
70780;SDS011;59514;48.810;2.134;2022-11-13T01:09:49;19.83;;;17.67;;
70780;SDS011;59514;48.810;2.134;2022-11-13T01:12:15;20.83;;;16.73;;
70780;SDS011;59514;48.810;2.134;2022-11-13T01:14:40;19.95;;;17.83;;
70780;SDS011;59514;48.810;2.134;2022-11-13T01:17:06;20.15;;;18.02;;
70780;SDS011;59514;48.810;2.134;2022-11-13T01:19:31;18.67;;;16.85;;
70780;SDS011;59514;48.810;2.134;2022-11-13T01:21:56;19.38;;;17.48;;
70780;SDS011;59514;48.810;2.134;2022-11-13T01:24:22;18.95;;;17.08;;
70780;SDS011;59514;48.810;2.134;2022-11-13T01:26:47;18.83;;;16.92;;
70780;SDS011;59514;48.810;2.134;2022-11-13T01:29:12;19.83;;;17.90;;
70780;SDS011;59514;48.810;2.134;2022-11-13T01:31:38;18.08;;;16.23;;
70780;SDS011;59514;48.810;2.134;2022-11-13T01:34:03;19.25;;;17.33;;
70780;SDS011;59514;48.810;2.134;2022-11-13T01:36:28;18.27;;;16.38;;
70780;SDS011;59514;48.810;2.134;2022-11-13T01:38:54;18.42;;;16.42;;
70780;SDS011;59514;48.810;2.134;2022-11-13T01:41:27;19.13;;;17.23;;
70780;SDS011;59514;48.810;2.134;2022-11-13T01:43:55;19.10;;;17.10;;
70780;SDS011;59514;48.810;2.134;2022-11-13T01:46:28;18.00;;;16.30;;
70780;SDS011;59514;48.810;2.134;2022-11-13T01:49:33;18.73;;;16.83;;
70780;SDS011;59514;48.810;2.134;2022-11-13T01:52:02;17.48;;;15.70;;
70780;SDS011;59514;48.810;2.134;2022-11-13T01:54:32;18.02;;;16.23;;
70780;SDS011;59514;48.810;2.134;2022-11-13T01:57:01;17.98;;;16.27;;
70780;SDS011;59514;48.810;2.134;2022-11-13T01:59:36;18.10;;;16.27;;
70780;SDS011;59514;48.810;2.134;2022-11-13T02:02:06;18.48;;;16.60;;
70780;SDS011;59514;48.810;2.134;2022-11-13T02:04:32;19.02;;;17.23;;
70780;SDS011;59514;48.810;2.134;2022-11-13T02:07:02;19.08;;;16.88;;
70780;SDS011;59514;48.810;2.134;2022-11-13T02:09:34;19.15;;;17.33;;
70780;SDS011;59514;48.810;2.134;2022-11-13T02:12:02;19.00;;;16.95;;
70780;SDS011;59514;48.810;2.134;2022-11-13T02:14:29;19.67;;;17.58;;
70780;SDS011;59514;48.810;2.134;2022-11-13T02:16:57;19.83;;;17.65;;
70780;SDS011;59514;48.810;2.134;2022-11-13T02:19:30;19.58;;;17.60;;
70780;SDS011;59514;48.810;2.134;2022-11-13T02:22:10;18.90;;;16.98;;
70780;SDS011;59514;48.810;2.134;2022-11-13T02:24:51;20.40;;;16.88;;
70780;SDS011;59514;48.810;2.134;2022-11-13T02:30:16;22.95;;;19.00;;
70780;SDS011;59514;48.810;2.134;2022-11-13T02:32:56;18.95;;;17.08;;
70780;SDS011;59514;48.810;2.134;2022-11-13T02:35:26;20.77;;;18.58;;
70780;SDS011;59514;48.810;2.134;2022-11-13T02:37:55;19.58;;;17.58;;
70780;SDS011;59514;48.810;2.134;2022-11-13T02:40:22;19.60;;;17.45;;
70780;SDS011;59514;48.810;2.134;2022-11-13T02:42:47;18.70;;;16.80;;
70780;SDS011;59514;48.810;2.134;2022-11-13T02:45:13;18.83;;;17.02;;
70780;SDS011;59514;48.810;2.134;2022-11-13T02:47:38;21.35;;;17.92;;
70780;SDS011;59514;48.810;2.134;2022-11-13T02:50:04;20.15;;;17.98;;
70780;SDS011;59514;48.810;2.134;2022-11-13T02:52:30;21.40;;;18.55;;
70780;SDS011;59514;48.810;2.134;2022-11-13T02:54:55;21.15;;;18.77;;
70780;SDS011;59514;48.810;2.134;2022-11-13T02:57:20;20.42;;;18.20;;
70780;SDS011;59514;48.810;2.134;2022-11-13T02:59:46;21.58;;;19.27;;
70780;SDS011;59514;48.810;2.134;2022-11-13T03:02:12;20.42;;;18.23;;
70780;SDS011;59514;48.810;2.134;2022-11-13T03:04:37;20.80;;;18.60;;
70780;SDS011;59514;48.810;2.134;2022-11-13T03:07:02;21.85;;;19.65;;
70780;SDS011;59514;48.810;2.134;2022-11-13T03:09:28;22.98;;;20.50;;
70780;SDS011;59514;48.810;2.134;2022-11-13T03:11:54;23.27;;;20.58;;
70780;SDS011;59514;48.810;2.134;2022-11-13T03:14:22;24.95;;;22.27;;
70780;SDS011;59514;48.810;2.134;2022-11-13T03:16:47;25.42;;;22.02;;
70780;SDS011;59514;48.810;2.134;2022-11-13T03:19:13;25.73;;;22.50;;
70780;SDS011;59514;48.810;2.134;2022-11-13T03:21:38;25.33;;;22.38;;
70780;SDS011;59514;48.810;2.134;2022-11-13T03:24:03;28.58;;;23.30;;
70780;SDS011;59514;48.810;2.134;2022-11-13T03:26:29;29.98;;;25.05;;
70780;SDS011;59514;48.810;2.134;2022-11-13T03:28:54;35.90;;;25.75;;
70780;SDS011;59514;48.810;2.134;2022-11-13T03:31:20;31.60;;;26.48;;
70780;SDS011;59514;48.810;2.134;2022-11-13T03:33:46;32.00;;;26.55;;
70780;SDS011;59514;48.810;2.134;2022-11-13T03:36:11;33.25;;;28.15;;
70780;SDS011;59514;48.810;2.134;2022-11-13T03:38:37;32.08;;;26.65;;
70780;SDS011;59514;48.810;2.134;2022-11-13T03:41:02;32.35;;;28.02;;
70780;SDS011;59514;48.810;2.134;2022-11-13T03:43:27;30.02;;;26.65;;
70780;SDS011;59514;48.810;2.134;2022-11-13T03:45:53;34.22;;;27.80;;
70780;SDS011;59514;48.810;2.134;2022-11-13T03:48:18;31.58;;;27.70;;
70780;SDS011;59514;48.810;2.134;2022-11-13T03:50:45;30.45;;;26.95;;
70780;SDS011;59514;48.810;2.134;2022-11-13T03:53:12;31.00;;;27.30;;
70780;SDS011;59514;48.810;2.134;2022-11-13T03:55:38;30.92;;;26.73;;
70780;SDS011;59514;48.810;2.134;2022-11-13T03:58:03;31.17;;;26.83;;
70780;SDS011;59514;48.810;2.134;2022-11-13T04:00:29;31.42;;;26.85;;
70780;SDS011;59514;48.810;2.134;2022-11-13T04:02:55;29.70;;;26.58;;
70780;SDS011;59514;48.810;2.134;2022-11-13T04:05:20;31.15;;;26.65;;
70780;SDS011;59514;48.810;2.134;2022-11-13T04:07:46;29.75;;;26.38;;
70780;SDS011;59514;48.810;2.134;2022-11-13T04:10:11;30.60;;;26.90;;
70780;SDS011;59514;48.810;2.134;2022-11-13T04:12:38;29.45;;;26.33;;
70780;SDS011;59514;48.810;2.134;2022-11-13T04:15:03;32.05;;;27.02;;
70780;SDS011;59514;48.810;2.134;2022-11-13T04:17:29;29.83;;;26.42;;
70780;SDS011;59514;48.810;2.134;2022-11-13T04:19:54;28.02;;;25.05;;
70780;SDS011;59514;48.810;2.134;2022-11-13T04:22:20;27.63;;;24.63;;
70780;SDS011;59514;48.810;2.134;2022-11-13T04:24:45;26.23;;;22.83;;
70780;SDS011;59514;48.810;2.134;2022-11-13T04:27:10;28.10;;;25.10;;
70780;SDS011;59514;48.810;2.134;2022-11-13T04:29:35;28.10;;;24.55;;
70780;SDS011;59514;48.810;2.134;2022-11-13T04:32:01;27.98;;;24.42;;
70780;SDS011;59514;48.810;2.134;2022-11-13T04:34:26;28.17;;;25.20;;
70780;SDS011;59514;48.810;2.134;2022-11-13T04:36:51;27.67;;;24.40;;
70780;SDS011;59514;48.810;2.134;2022-11-13T04:39:16;26.95;;;23.65;;
70780;SDS011;59514;48.810;2.134;2022-11-13T04:41:42;25.60;;;22.92;;
70780;SDS011;59514;48.810;2.134;2022-11-13T04:44:26;26.00;;;23.20;;
70780;SDS011;59514;48.810;2.134;2022-11-13T04:46:51;26.25;;;22.95;;
70780;SDS011;59514;48.810;2.134;2022-11-13T04:49:17;29.40;;;24.27;;
70780;SDS011;59514;48.810;2.134;2022-11-13T04:51:42;27.77;;;22.95;;
70780;SDS011;59514;48.810;2.134;2022-11-13T04:54:07;27.50;;;24.48;;
70780;SDS011;59514;48.810;2.134;2022-11-13T04:56:32;27.60;;;23.70;;
70780;SDS011;59514;48.810;2.134;2022-11-13T04:58:58;29.60;;;22.98;;
70780;SDS011;59514;48.810;2.134;2022-11-13T05:01:23;31.83;;;24.33;;
70780;SDS011;59514;48.810;2.134;2022-11-13T05:03:48;28.30;;;24.17;;
70780;SDS011;59514;48.810;2.134;2022-11-13T05:06:14;29.73;;;24.05;;
70780;SDS011;59514;48.810;2.134;2022-11-13T05:08:39;27.52;;;21.75;;
70780;SDS011;59514;48.810;2.134;2022-11-13T05:11:04;30.05;;;23.33;;
70780;SDS011;59514;48.810;2.134;2022-11-13T05:13:31;27.85;;;21.85;;
70780;SDS011;59514;48.810;2.134;2022-11-13T05:16:04;25.08;;;20.95;;
70780;SDS011;59514;48.810;2.134;2022-11-13T05:18:32;24.63;;;20.35;;
70780;SDS011;59514;48.810;2.134;2022-11-13T05:20:58;24.27;;;20.25;;
70780;SDS011;59514;48.810;2.134;2022-11-13T05:23:24;23.25;;;19.63;;
70780;SDS011;59514;48.810;2.134;2022-11-13T05:25:49;21.05;;;18.52;;
70780;SDS011;59514;48.810;2.134;2022-11-13T05:28:15;24.23;;;19.33;;
70780;SDS011;59514;48.810;2.134;2022-11-13T05:30:40;25.20;;;19.98;;
70780;SDS011;59514;48.810;2.134;2022-11-13T05:33:06;23.27;;;19.30;;
70780;SDS011;59514;48.810;2.134;2022-11-13T05:35:31;24.23;;;19.77;;
70780;SDS011;59514;48.810;2.134;2022-11-13T05:37:59;22.35;;;18.65;;
70780;SDS011;59514;48.810;2.134;2022-11-13T05:40:25;22.15;;;19.48;;
70780;SDS011;59514;48.810;2.134;2022-11-13T05:42:51;22.83;;;19.67;;
70780;SDS011;59514;48.810;2.134;2022-11-13T05:45:17;22.70;;;19.65;;
70780;SDS011;59514;48.810;2.134;2022-11-13T05:47:42;22.08;;;19.60;;
70780;SDS011;59514;48.810;2.134;2022-11-13T05:50:08;22.38;;;19.25;;
70780;SDS011;59514;48.810;2.134;2022-11-13T05:52:33;23.60;;;19.45;;
70780;SDS011;59514;48.810;2.134;2022-11-13T05:54:59;24.85;;;20.08;;
70780;SDS011;59514;48.810;2.134;2022-11-13T05:57:24;22.52;;;19.10;;
70780;SDS011;59514;48.810;2.134;2022-11-13T05:59:49;24.25;;;19.23;;
70780;SDS011;59514;48.810;2.134;2022-11-13T06:02:14;22.77;;;19.25;;
70780;SDS011;59514;48.810;2.134;2022-11-13T06:04:40;38.35;;;19.52;;
70780;SDS011;59514;48.810;2.134;2022-11-13T06:07:05;21.02;;;18.48;;
70780;SDS011;59514;48.810;2.134;2022-11-13T06:09:30;20.40;;;18.13;;
70780;SDS011;59514;48.810;2.134;2022-11-13T06:11:56;20.77;;;18.38;;
70780;SDS011;59514;48.810;2.134;2022-11-13T06:14:21;27.48;;;18.55;;
70780;SDS011;59514;48.810;2.134;2022-11-13T06:16:46;23.00;;;17.23;;
70780;SDS011;59514;48.810;2.134;2022-11-13T06:19:11;49.85;;;19.58;;
70780;SDS011;59514;48.810;2.134;2022-11-13T06:21:37;20.85;;;17.50;;
70780;SDS011;59514;48.810;2.134;2022-11-13T06:24:04;30.60;;;17.48;;
70780;SDS011;59514;48.810;2.134;2022-11-13T06:26:31;21.60;;;17.30;;
70780;SDS011;59514;48.810;2.134;2022-11-13T06:28:59;18.48;;;16.50;;
70780;SDS011;59514;48.810;2.134;2022-11-13T06:31:29;17.90;;;16.05;;
70780;SDS011;59514;48.810;2.134;2022-11-13T06:33:57;17.40;;;15.53;;
70780;SDS011;59514;48.810;2.134;2022-11-13T06:36:25;18.23;;;16.45;;
70780;SDS011;59514;48.810;2.134;2022-11-13T06:38:52;18.30;;;16.50;;
70780;SDS011;59514;48.810;2.134;2022-11-13T06:41:24;17.25;;;15.52;;
70780;SDS011;59514;48.810;2.134;2022-11-13T06:43:51;18.63;;;16.67;;
70780;SDS011;59514;48.810;2.134;2022-11-13T06:46:17;18.20;;;16.40;;
70780;SDS011;59514;48.810;2.134;2022-11-13T06:48:45;18.33;;;16.33;;
70780;SDS011;59514;48.810;2.134;2022-11-13T06:51:15;17.83;;;16.00;;
70780;SDS011;59514;48.810;2.134;2022-11-13T06:53:42;17.27;;;15.48;;
70780;SDS011;59514;48.810;2.134;2022-11-13T06:56:08;18.92;;;17.00;;
70780;SDS011;59514;48.810;2.134;2022-11-13T06:58:35;17.48;;;15.88;;
70780;SDS011;59514;48.810;2.134;2022-11-13T07:01:05;17.17;;;15.27;;
70780;SDS011;59514;48.810;2.134;2022-11-13T07:03:30;16.50;;;14.85;;
70780;SDS011;59514;48.810;2.134;2022-11-13T07:05:56;18.70;;;16.80;;
70780;SDS011;59514;48.810;2.134;2022-11-13T07:08:21;17.52;;;15.75;;
70780;SDS011;59514;48.810;2.134;2022-11-13T07:10:53;17.88;;;16.05;;
70780;SDS011;59514;48.810;2.134;2022-11-13T07:13:20;18.25;;;16.35;;
70780;SDS011;59514;48.810;2.134;2022-11-13T07:15:46;18.67;;;16.60;;
70780;SDS011;59514;48.810;2.134;2022-11-13T07:18:11;18.88;;;16.88;;
70780;SDS011;59514;48.810;2.134;2022-11-13T07:20:36;20.90;;;17.20;;
70780;SDS011;59514;48.810;2.134;2022-11-13T07:23:02;19.65;;;17.27;;
70780;SDS011;59514;48.810;2.134;2022-11-13T07:25:28;19.88;;;17.35;;
70780;SDS011;59514;48.810;2.134;2022-11-13T07:27:54;24.00;;;19.15;;
70780;SDS011;59514;48.810;2.134;2022-11-13T07:30:20;22.65;;;16.95;;
70780;SDS011;59514;48.810;2.134;2022-11-13T07:32:46;23.15;;;18.60;;
70780;SDS011;59514;48.810;2.134;2022-11-13T07:35:12;20.83;;;17.65;;
70780;SDS011;59514;48.810;2.134;2022-11-13T07:37:37;22.75;;;18.67;;
70780;SDS011;59514;48.810;2.134;2022-11-13T07:40:03;19.50;;;17.40;;
70780;SDS011;59514;48.810;2.134;2022-11-13T07:42:29;19.10;;;17.17;;
70780;SDS011;59514;48.810;2.134;2022-11-13T07:44:55;18.45;;;16.55;;
70780;SDS011;59514;48.810;2.134;2022-11-13T07:47:20;18.95;;;16.98;;
70780;SDS011;59514;48.810;2.134;2022-11-13T07:49:45;20.25;;;17.27;;
70780;SDS011;59514;48.810;2.134;2022-11-13T07:52:11;18.75;;;16.75;;
70780;SDS011;59514;48.810;2.134;2022-11-13T07:54:36;17.77;;;15.73;;
70780;SDS011;59514;48.810;2.134;2022-11-13T07:57:01;18.38;;;16.48;;
70780;SDS011;59514;48.810;2.134;2022-11-13T07:59:27;20.30;;;16.60;;
70780;SDS011;59514;48.810;2.134;2022-11-13T08:01:52;17.88;;;15.98;;
70780;SDS011;59514;48.810;2.134;2022-11-13T08:04:17;18.15;;;15.88;;
70780;SDS011;59514;48.810;2.134;2022-11-13T08:06:43;18.42;;;16.48;;
70780;SDS011;59514;48.810;2.134;2022-11-13T08:09:08;18.42;;;16.50;;
70780;SDS011;59514;48.810;2.134;2022-11-13T08:11:34;17.88;;;16.05;;
70780;SDS011;59514;48.810;2.134;2022-11-13T08:13:59;18.27;;;16.42;;
70780;SDS011;59514;48.810;2.134;2022-11-13T08:16:25;17.40;;;15.60;;
70780;SDS011;59514;48.810;2.134;2022-11-13T08:18:51;17.83;;;15.10;;
70780;SDS011;59514;48.810;2.134;2022-11-13T08:21:16;16.50;;;14.80;;
70780;SDS011;59514;48.810;2.134;2022-11-13T08:23:42;16.60;;;14.80;;
70780;SDS011;59514;48.810;2.134;2022-11-13T08:26:08;16.77;;;15.05;;
70780;SDS011;59514;48.810;2.134;2022-11-13T08:28:34;14.95;;;13.52;;
70780;SDS011;59514;48.810;2.134;2022-11-13T08:31:00;14.77;;;13.38;;
70780;SDS011;59514;48.810;2.134;2022-11-13T08:33:26;15.10;;;13.70;;
70780;SDS011;59514;48.810;2.134;2022-11-13T08:35:53;14.57;;;13.05;;
70780;SDS011;59514;48.810;2.134;2022-11-13T08:38:19;15.20;;;13.60;;
70780;SDS011;59514;48.810;2.134;2022-11-13T08:40:45;14.82;;;13.07;;
70780;SDS011;59514;48.810;2.134;2022-11-13T08:43:10;15.38;;;13.77;;
70780;SDS011;59514;48.810;2.134;2022-11-13T08:45:38;15.30;;;13.82;;
70780;SDS011;59514;48.810;2.134;2022-11-13T08:48:04;15.65;;;14.05;;
70780;SDS011;59514;48.810;2.134;2022-11-13T08:50:30;15.93;;;14.35;;
70780;SDS011;59514;48.810;2.134;2022-11-13T08:52:57;15.27;;;13.77;;
70780;SDS011;59514;48.810;2.134;2022-11-13T08:55:23;15.02;;;13.45;;
70780;SDS011;59514;48.810;2.134;2022-11-13T08:57:49;15.48;;;13.98;;
70780;SDS011;59514;48.810;2.134;2022-11-13T09:00:15;14.85;;;13.38;;
70780;SDS011;59514;48.810;2.134;2022-11-13T09:02:41;16.00;;;14.40;;
70780;SDS011;59514;48.810;2.134;2022-11-13T09:05:06;15.57;;;13.90;;
70780;SDS011;59514;48.810;2.134;2022-11-13T09:07:31;15.90;;;14.27;;
70780;SDS011;59514;48.810;2.134;2022-11-13T09:09:57;14.68;;;13.27;;
70780;SDS011;59514;48.810;2.134;2022-11-13T09:12:22;15.45;;;13.95;;
70780;SDS011;59514;48.810;2.134;2022-11-13T09:14:47;14.40;;;12.95;;
70780;SDS011;59514;48.810;2.134;2022-11-13T09:17:13;15.38;;;13.88;;
70780;SDS011;59514;48.810;2.134;2022-11-13T09:19:38;15.40;;;14.00;;
70780;SDS011;59514;48.810;2.134;2022-11-13T09:22:04;13.75;;;12.45;;
70780;SDS011;59514;48.810;2.134;2022-11-13T09:24:30;14.43;;;13.00;;
70780;SDS011;59514;48.810;2.134;2022-11-13T09:26:55;15.48;;;13.95;;
70780;SDS011;59514;48.810;2.134;2022-11-13T09:29:20;14.55;;;12.82;;
70780;SDS011;59514;48.810;2.134;2022-11-13T09:31:47;15.05;;;13.65;;
70780;SDS011;59514;48.810;2.134;2022-11-13T09:34:13;14.27;;;12.80;;
70780;SDS011;59514;48.810;2.134;2022-11-13T09:36:38;15.02;;;13.43;;
70780;SDS011;59514;48.810;2.134;2022-11-13T09:39:04;14.35;;;13.00;;
70780;SDS011;59514;48.810;2.134;2022-11-13T09:41:36;14.82;;;13.32;;
70780;SDS011;59514;48.810;2.134;2022-11-13T21:06:03;26.08;;;21.45;;
70780;SDS011;59514;48.810;2.134;2022-11-13T21:08:29;24.00;;;20.05;;
70780;SDS011;59514;48.810;2.134;2022-11-13T21:10:55;23.08;;;20.30;;
70780;SDS011;59514;48.810;2.134;2022-11-13T21:13:23;20.35;;;17.95;;
70780;SDS011;59514;48.810;2.134;2022-11-13T21:15:48;21.50;;;18.73;;
70780;SDS011;59514;48.810;2.134;2022-11-13T21:18:13;22.13;;;18.65;;
70780;SDS011;59514;48.810;2.134;2022-11-13T21:20:39;19.42;;;16.33;;
70780;SDS011;59514;48.810;2.134;2022-11-13T21:23:04;22.55;;;19.27;;
70780;SDS011;59514;48.810;2.134;2022-11-13T21:25:30;27.35;;;21.92;;
70780;SDS011;59514;48.810;2.134;2022-11-13T21:27:55;34.40;;;25.10;;
70780;SDS011;59514;48.810;2.134;2022-11-13T21:30:21;28.73;;;22.70;;
70780;SDS011;59514;48.810;2.134;2022-11-13T21:32:47;30.33;;;24.50;;
70780;SDS011;59514;48.810;2.134;2022-11-13T21:35:13;29.10;;;22.05;;
70780;SDS011;59514;48.810;2.134;2022-11-13T21:37:38;26.40;;;22.30;;
70780;SDS011;59514;48.810;2.134;2022-11-13T21:40:04;24.27;;;20.23;;
70780;SDS011;59514;48.810;2.134;2022-11-13T21:42:31;24.80;;;21.00;;
70780;SDS011;59514;48.810;2.134;2022-11-13T21:44:56;28.13;;;23.58;;
70780;SDS011;59514;48.810;2.134;2022-11-13T21:47:22;23.30;;;20.73;;
70780;SDS011;59514;48.810;2.134;2022-11-13T21:49:47;24.15;;;21.50;;
70780;SDS011;59514;48.810;2.134;2022-11-13T21:52:13;23.05;;;19.90;;
70780;SDS011;59514;48.810;2.134;2022-11-13T21:54:38;23.63;;;19.30;;
70780;SDS011;59514;48.810;2.134;2022-11-13T21:57:03;24.38;;;19.75;;
70780;SDS011;59514;48.810;2.134;2022-11-13T21:59:28;28.73;;;20.50;;
70780;SDS011;59514;48.810;2.134;2022-11-13T22:01:55;25.98;;;21.52;;
70780;SDS011;59514;48.810;2.134;2022-11-13T22:04:21;25.48;;;20.33;;
70780;SDS011;59514;48.810;2.134;2022-11-13T22:06:47;25.77;;;20.52;;
70780;SDS011;59514;48.810;2.134;2022-11-13T22:09:14;32.40;;;22.63;;
70780;SDS011;59514;48.810;2.134;2022-11-13T22:11:40;32.38;;;24.58;;
70780;SDS011;59514;48.810;2.134;2022-11-13T22:14:06;26.73;;;20.90;;
70780;SDS011;59514;48.810;2.134;2022-11-13T22:16:32;30.98;;;20.88;;
70780;SDS011;59514;48.810;2.134;2022-11-13T22:19:00;30.40;;;22.92;;
70780;SDS011;59514;48.810;2.134;2022-11-13T22:21:29;30.77;;;24.35;;
70780;SDS011;59514;48.810;2.134;2022-11-13T22:23:55;34.25;;;21.83;;
70780;SDS011;59514;48.810;2.134;2022-11-13T22:26:22;49.72;;;19.67;;
70780;SDS011;59514;48.810;2.134;2022-11-13T22:28:48;25.17;;;19.15;;
70780;SDS011;59514;48.810;2.134;2022-11-13T22:31:15;27.27;;;17.50;;
70780;SDS011;59514;48.810;2.134;2022-11-13T22:33:42;21.73;;;18.70;;
70780;SDS011;59514;48.810;2.134;2022-11-13T22:36:09;22.92;;;18.13;;
70780;SDS011;59514;48.810;2.134;2022-11-13T22:38:36;21.88;;;17.23;;
70780;SDS011;59514;48.810;2.134;2022-11-13T22:41:08;20.80;;;17.25;;
70780;SDS011;59514;48.810;2.134;2022-11-13T22:43:39;19.65;;;17.23;;
70780;SDS011;59514;48.810;2.134;2022-11-13T22:46:07;19.67;;;16.60;;
70780;SDS011;59514;48.810;2.134;2022-11-13T22:48:37;18.77;;;16.52;;
70780;SDS011;59514;48.810;2.134;2022-11-13T22:51:11;18.00;;;15.50;;
70780;SDS011;59514;48.810;2.134;2022-11-13T22:53:47;16.73;;;14.75;;
70780;SDS011;59514;48.810;2.134;2022-11-13T22:56:18;27.13;;;20.38;;
70780;SDS011;59514;48.810;2.134;2022-11-13T22:58:43;19.40;;;17.25;;
70780;SDS011;59514;48.810;2.134;2022-11-13T23:01:16;19.10;;;16.60;;
70780;SDS011;59514;48.810;2.134;2022-11-13T23:03:44;18.27;;;16.13;;
70780;SDS011;59514;48.810;2.134;2022-11-13T23:06:11;19.00;;;16.33;;
70780;SDS011;59514;48.810;2.134;2022-11-13T23:08:38;18.52;;;15.48;;
70780;SDS011;59514;48.810;2.134;2022-11-13T23:11:05;18.02;;;15.70;;
70780;SDS011;59514;48.810;2.134;2022-11-13T23:13:32;18.38;;;15.88;;
70780;SDS011;59514;48.810;2.134;2022-11-13T23:15:58;17.67;;;15.43;;
70780;SDS011;59514;48.810;2.134;2022-11-13T23:18:24;17.08;;;14.82;;
70780;SDS011;59514;48.810;2.134;2022-11-13T23:20:49;16.13;;;14.15;;
70780;SDS011;59514;48.810;2.134;2022-11-13T23:23:15;14.30;;;12.75;;
70780;SDS011;59514;48.810;2.134;2022-11-13T23:25:41;15.50;;;13.82;;
70780;SDS011;59514;48.810;2.134;2022-11-13T23:28:07;16.30;;;13.35;;
70780;SDS011;59514;48.810;2.134;2022-11-13T23:30:33;17.38;;;14.05;;
70780;SDS011;59514;48.810;2.134;2022-11-13T23:32:58;17.38;;;14.57;;
70780;SDS011;59514;48.810;2.134;2022-11-13T23:35:23;16.83;;;14.73;;
70780;SDS011;59514;48.810;2.134;2022-11-13T23:37:49;21.35;;;14.77;;
70780;SDS011;59514;48.810;2.134;2022-11-13T23:40:14;17.13;;;14.52;;
70780;SDS011;59514;48.810;2.134;2022-11-13T23:42:39;17.13;;;15.18;;
70780;SDS011;59514;48.810;2.134;2022-11-13T23:45:05;18.52;;;15.10;;
70780;SDS011;59514;48.810;2.134;2022-11-13T23:47:30;19.50;;;16.05;;
70780;SDS011;59514;48.810;2.134;2022-11-13T23:49:56;19.30;;;15.02;;
70780;SDS011;59514;48.810;2.134;2022-11-13T23:52:21;19.10;;;15.05;;
70780;SDS011;59514;48.810;2.134;2022-11-13T23:54:47;20.10;;;15.55;;
70780;SDS011;59514;48.810;2.134;2022-11-13T23:57:12;20.08;;;16.02;;
70780;SDS011;59514;48.810;2.134;2022-11-13T23:59:37;19.30;;;15.88;;
